Time,TemperatureF,DewpointF,PressureIn,WindDirection,WindDirectionDegrees,WindSpeedMPH,WindSpeedGustMPH,Humidity,HourlyPrecipIn,Conditions,Clouds,dailyrainin,SoftwareType,DateUTC
2013-02-24 00:01:00,34.0,33.0,29.87,NE,55,10.0,13.0,96,0.01,,,0.17,,2013-02-24 05:01:00,
2013-02-24 00:11:00,34.0,33.0,29.87,NE,55,10.0,13.0,96,0.01,,,0.17,,2013-02-24 05:11:00,
2013-02-24 00:22:00,34.0,33.0,29.85,ENE,58,1.0,13.0,96,0.01,,,0.17,,2013-02-24 05:22:00,
2013-02-24 00:32:00,35.0,34.0,29.85,NE,45,0.0,10.0,96,0.00,,,0.18,,2013-02-24 05:32:00,
2013-02-24 00:42:00,35.0,34.0,29.85,NE,45,0.0,10.0,96,0.00,,,0.18,,2013-02-24 05:42:00,
2013-02-24 00:52:00,35.0,34.0,29.85,NNE,27,4.0,10.0,96,0.00,,,0.18,,2013-02-24 05:52:00,
2013-02-24 01:02:00,35.0,34.0,29.84,NNE,21,2.0,10.0,96,0.00,,,0.18,,2013-02-24 06:02:00,
2013-02-24 01:11:00,35.0,34.0,29.84,NNE,21,2.0,10.0,96,0.00,,,0.18,,2013-02-24 06:11:00,
2013-02-24 01:21:00,35.0,34.0,29.83,ENE,60,10.0,10.0,96,0.00,,,0.18,,2013-02-24 06:21:00,
2013-02-24 01:32:00,35.0,34.0,29.84,NE,46,5.0,7.0,97,0.00,,,0.18,,2013-02-24 06:32:00,
2013-02-24 01:42:00,35.0,34.0,29.84,NE,46,5.0,7.0,97,0.00,,,0.18,,2013-02-24 06:42:00,
2013-02-24 01:52:00,36.0,35.0,29.83,NE,47,7.0,7.0,96,0.00,,,0.18,,2013-02-24 06:52:00,
2013-02-24 02:01:00,36.0,35.0,29.82,NE,46,8.0,8.0,96,0.00,,,0.18,,2013-02-24 07:01:00,
2013-02-24 02:12:00,36.0,35.0,29.82,NE,46,8.0,8.0,96,0.00,,,0.18,,2013-02-24 07:12:00,
2013-02-24 02:21:00,36.0,35.0,29.81,NNE,22,10.0,10.0,96,0.00,,,0.18,,2013-02-24 07:21:00,
2013-02-24 02:32:00,36.0,35.0,29.80,NE,40,16.0,16.0,96,0.00,,,0.18,,2013-02-24 07:32:00,
2013-02-24 02:42:00,36.0,35.0,29.80,NE,40,16.0,16.0,96,0.00,,,0.18,,2013-02-24 07:42:00,
2013-02-24 02:51:00,37.0,36.0,29.78,ENE,57,9.0,11.0,96,0.00,,,0.18,,2013-02-24 07:51:00,
2013-02-24 03:01:00,37.0,36.0,29.78,ENE,57,9.0,11.0,96,0.00,,,0.18,,2013-02-24 08:01:00,
2013-02-24 03:11:00,37.0,36.0,29.77,NNE,33,0.0,11.0,96,0.00,,,0.18,,2013-02-24 08:11:00,
2013-02-24 03:22:00,37.0,36.0,29.77,NNE,33,0.0,11.0,96,0.00,,,0.18,,2013-02-24 08:22:00,
2013-02-24 03:32:00,37.0,36.0,29.77,NE,34,9.0,9.0,96,0.01,,,0.19,,2013-02-24 08:32:00,
2013-02-24 03:42:00,37.0,36.0,29.77,NE,34,9.0,9.0,96,0.01,,,0.19,,2013-02-24 08:42:00,
2013-02-24 03:54:00,37.0,36.0,29.77,NNE,12,0.0,8.0,96,0.01,,,0.19,,2013-02-24 08:54:00,
2013-02-24 04:01:00,37.0,36.0,29.77,NNE,29,0.0,8.0,96,0.01,,,0.19,,2013-02-24 09:01:00,
2013-02-24 04:11:00,37.0,36.0,29.77,NNE,29,0.0,8.0,96,0.01,,,0.19,,2013-02-24 09:11:00,
2013-02-24 04:21:00,37.0,36.0,29.76,NNE,26,5.0,8.0,96,0.01,,,0.19,,2013-02-24 09:21:00,
2013-02-24 04:32:00,37.0,36.0,29.75,NNE,23,7.0,9.0,96,0.00,,,0.19,,2013-02-24 09:32:00,
2013-02-24 04:42:00,37.0,36.0,29.75,NNE,23,7.0,9.0,96,0.00,,,0.19,,2013-02-24 09:42:00,
2013-02-24 04:51:00,37.0,36.0,29.74,NE,46,6.0,9.0,96,0.00,,,0.19,,2013-02-24 09:51:00,
2013-02-24 05:01:00,37.0,36.0,29.74,North,352,2.0,9.0,96,0.00,,,0.19,,2013-02-24 10:01:00,
2013-02-24 05:11:00,37.0,36.0,29.75,NNE,33,3.0,9.0,96,0.00,,,0.19,,2013-02-24 10:11:00,
2013-02-24 05:21:00,37.0,36.0,29.75,NNE,33,3.0,9.0,96,0.00,,,0.19,,2013-02-24 10:21:00,
2013-02-24 05:32:00,37.0,36.0,29.75,NNE,33,3.0,9.0,96,0.00,,,0.19,,2013-02-24 10:32:00,
2013-02-24 05:41:00,37.0,36.0,29.75,NNE,33,3.0,9.0,96,0.00,,,0.19,,2013-02-24 10:41:00,
2013-02-24 05:51:00,37.0,36.0,29.78,North,357,6.0,9.0,96,0.01,,,0.20,,2013-02-24 10:51:00,
2013-02-24 06:01:00,37.0,36.0,29.78,NNE,24,6.0,9.0,96,0.01,,,0.20,,2013-02-24 11:01:00,
2013-02-24 06:11:00,37.0,36.0,29.78,NNE,24,6.0,9.0,96,0.01,,,0.20,,2013-02-24 11:11:00,
2013-02-24 06:22:00,37.0,36.0,29.78,NNE,24,6.0,9.0,96,0.01,,,0.20,,2013-02-24 11:22:00,
2013-02-24 06:32:00,37.0,36.0,29.76,North,11,6.0,7.0,96,0.02,,,0.22,,2013-02-24 11:32:00,
2013-02-24 06:42:00,37.0,36.0,29.76,North,11,6.0,7.0,96,0.02,,,0.22,,2013-02-24 11:42:00,
2013-02-24 06:53:00,36.0,35.0,29.77,NNW,346,6.0,7.0,96,0.02,,,0.22,,2013-02-24 11:53:00,
2013-02-24 07:02:00,36.0,35.0,29.76,North,352,6.0,7.0,96,0.02,,,0.22,,2013-02-24 12:02:00,
2013-02-24 07:11:00,36.0,35.0,29.76,North,352,6.0,7.0,96,0.02,,,0.22,,2013-02-24 12:11:00,
2013-02-24 07:22:00,36.0,35.0,29.75,NE,35,3.0,7.0,96,0.02,,,0.22,,2013-02-24 12:22:00,
2013-02-24 07:32:00,36.0,35.0,29.73,North,352,5.0,12.0,96,0.02,,,0.24,,2013-02-24 12:32:00,
2013-02-24 07:46:00,36.0,35.0,29.73,North,352,5.0,12.0,96,0.02,,,0.24,,2013-02-24 12:46:00,
2013-02-24 07:55:00,36.0,35.0,29.73,North,352,5.0,12.0,96,0.02,,,0.24,,2013-02-24 12:55:00,
2013-02-24 08:15:00,37.0,36.0,29.72,NNE,29,3.0,12.0,96,0.02,,,0.24,,2013-02-24 13:15:00,
2013-02-24 08:27:00,37.0,36.0,29.72,NE,43,4.0,12.0,95,0.02,,,0.24,,2013-02-24 13:27:00,
2013-02-24 08:34:00,37.0,36.0,29.73,NW,318,5.0,8.0,95,0.00,,,0.24,,2013-02-24 13:34:00,
2013-02-24 08:44:00,37.0,36.0,29.73,NW,318,5.0,8.0,95,0.00,,,0.24,,2013-02-24 13:44:00,
2013-02-24 08:53:00,37.0,36.0,29.73,NW,318,5.0,8.0,95,0.00,,,0.24,,2013-02-24 13:53:00,
2013-02-24 09:05:00,37.0,36.0,29.73,NW,318,5.0,8.0,95,0.00,,,0.24,,2013-02-24 14:05:00,
2013-02-24 09:14:00,38.0,36.0,29.72,NE,36,4.0,8.0,94,0.00,,,0.24,,2013-02-24 14:14:00,
2013-02-24 09:25:00,38.0,36.0,29.72,NE,36,4.0,8.0,94,0.00,,,0.24,,2013-02-24 14:25:00,
2013-02-24 09:34:00,39.0,37.0,29.72,North,357,3.0,8.0,94,0.00,,,0.24,,2013-02-24 14:34:00,
2013-02-24 09:44:00,39.0,37.0,29.72,North,357,3.0,8.0,94,0.00,,,0.24,,2013-02-24 14:44:00,
2013-02-24 09:53:00,38.0,36.0,29.72,NW,326,3.0,8.0,93,0.00,,,0.24,,2013-02-24 14:53:00,
2013-02-24 10:04:00,38.0,36.0,29.72,North,357,4.0,8.0,94,0.00,,,0.24,,2013-02-24 15:04:00,
2013-02-24 10:13:00,38.0,36.0,29.73,NNE,13,8.0,8.0,94,0.00,,,0.24,,2013-02-24 15:13:00,
2013-02-24 10:23:00,38.0,36.0,29.73,NNE,13,8.0,8.0,94,0.00,,,0.24,,2013-02-24 15:23:00,
2013-02-24 10:32:00,38.0,36.0,29.73,NNE,13,8.0,8.0,94,0.00,,,0.24,,2013-02-24 15:32:00,
2013-02-24 10:42:00,38.0,36.0,29.73,NNE,13,8.0,8.0,94,0.00,,,0.24,,2013-02-24 15:42:00,
2013-02-24 10:52:00,38.0,36.0,29.72,NW,312,5.0,9.0,94,0.00,,,0.24,,2013-02-24 15:52:00,
2013-02-24 11:02:00,37.0,36.0,29.73,WNW,285,8.0,9.0,95,0.00,,,0.24,,2013-02-24 16:02:00,
2013-02-24 11:12:00,37.0,36.0,29.73,WNW,285,8.0,9.0,95,0.00,,,0.24,,2013-02-24 16:12:00,
2013-02-24 11:21:00,37.0,36.0,29.73,WNW,285,8.0,9.0,95,0.00,,,0.24,,2013-02-24 16:21:00,
2013-02-24 11:32:00,38.0,37.0,29.73,NNW,345,3.0,11.0,95,0.25,,,0.49,,2013-02-24 16:32:00,
2013-02-24 11:42:00,38.0,37.0,29.73,NNW,345,3.0,11.0,95,0.25,,,0.49,,2013-02-24 16:42:00,
2013-02-24 11:52:00,38.0,37.0,29.73,NNW,345,3.0,11.0,95,0.25,,,0.49,,2013-02-24 16:52:00,
2013-02-24 12:01:00,38.0,37.0,29.73,NNW,345,3.0,11.0,95,0.25,,,0.49,,2013-02-24 17:01:00,
2013-02-24 12:11:00,38.0,37.0,29.73,NNW,345,3.0,11.0,95,0.25,,,0.49,,2013-02-24 17:11:00,
2013-02-24 12:22:00,39.0,38.0,29.71,NW,322,5.0,11.0,95,0.25,,,0.49,,2013-02-24 17:22:00,
2013-02-24 12:32:00,39.0,37.0,29.71,WNW,302,7.0,8.0,93,0.11,,,0.60,,2013-02-24 17:32:00,
2013-02-24 12:42:00,39.0,37.0,29.71,WNW,302,7.0,8.0,93,0.11,,,0.60,,2013-02-24 17:42:00,
2013-02-24 12:52:00,39.0,37.0,29.72,NW,306,1.0,8.0,92,0.11,,,0.60,,2013-02-24 17:52:00,
2013-02-24 13:02:00,39.0,37.0,29.72,NW,326,5.0,8.0,91,0.11,,,0.60,,2013-02-24 18:02:00,
2013-02-24 13:11:00,39.0,37.0,29.72,NW,326,5.0,8.0,91,0.11,,,0.60,,2013-02-24 18:11:00,
2013-02-24 13:22:00,39.0,37.0,29.72,North,352,6.0,8.0,91,0.11,,,0.60,,2013-02-24 18:22:00,
2013-02-24 13:32:00,39.0,36.0,29.71,NW,314,2.0,11.0,90,0.00,,,0.60,,2013-02-24 18:32:00,
2013-02-24 13:42:00,39.0,36.0,29.71,NW,314,2.0,11.0,90,0.00,,,0.60,,2013-02-24 18:42:00,
2013-02-24 13:52:00,39.0,36.0,29.71,NW,314,2.0,11.0,90,0.00,,,0.60,,2013-02-24 18:52:00,
2013-02-24 14:01:00,39.0,36.0,29.71,North,6,9.0,11.0,90,0.00,,,0.60,,2013-02-24 19:01:00,
2013-02-24 14:11:00,39.0,36.0,29.71,North,6,9.0,11.0,90,0.00,,,0.60,,2013-02-24 19:11:00,
2013-02-24 14:22:00,39.0,36.0,29.71,North,357,8.0,11.0,88,0.00,,,0.60,,2013-02-24 19:22:00,
2013-02-24 14:32:00,39.0,36.0,29.71,North,357,8.0,11.0,88,0.00,,,0.60,,2013-02-24 19:32:00,
2013-02-24 14:42:00,39.0,36.0,29.71,North,357,8.0,11.0,88,0.00,,,0.60,,2013-02-24 19:42:00,
2013-02-24 14:51:00,39.0,36.0,29.71,North,357,8.0,11.0,88,0.00,,,0.60,,2013-02-24 19:51:00,
2013-02-24 15:02:00,38.0,36.0,29.73,NW,323,3.0,11.0,91,0.00,,,0.60,,2013-02-24 20:02:00,
2013-02-24 15:11:00,38.0,36.0,29.73,NW,323,3.0,11.0,91,0.00,,,0.60,,2013-02-24 20:11:00,
2013-02-24 15:22:00,38.0,36.0,29.73,NW,323,3.0,11.0,91,0.00,,,0.60,,2013-02-24 20:22:00,
2013-02-24 15:32:00,37.0,35.0,29.74,NW,316,2.0,9.0,92,0.00,,,0.60,,2013-02-24 20:32:00,
2013-02-24 15:42:00,37.0,35.0,29.74,NW,316,2.0,9.0,92,0.00,,,0.60,,2013-02-24 20:42:00,
2013-02-24 15:52:00,37.0,34.0,29.75,NNW,339,2.0,9.0,90,0.00,,,0.60,,2013-02-24 20:52:00,
2013-02-24 16:02:00,37.0,34.0,29.75,NNW,339,2.0,9.0,90,0.00,,,0.60,,2013-02-24 21:02:00,
2013-02-24 16:11:00,37.0,34.0,29.75,NNW,339,2.0,9.0,90,0.00,,,0.60,,2013-02-24 21:11:00,
2013-02-24 16:21:00,37.0,34.0,29.77,North,352,6.0,9.0,89,0.00,,,0.60,,2013-02-24 21:21:00,
2013-02-24 16:32:00,37.0,34.0,29.76,NNE,17,6.0,8.0,88,0.00,,,0.60,,2013-02-24 21:32:00,
2013-02-24 16:42:00,37.0,34.0,29.76,NNE,17,6.0,8.0,88,0.00,,,0.60,,2013-02-24 21:42:00,
2013-02-24 16:52:00,37.0,34.0,29.77,WNW,293,13.0,13.0,88,0.00,,,0.60,,2013-02-24 21:52:00,
2013-02-24 17:01:00,37.0,34.0,29.77,NNE,12,5.0,8.0,89,0.00,,,0.60,,2013-02-24 22:01:00,
2013-02-24 17:11:00,37.0,34.0,29.77,NNE,12,5.0,8.0,89,0.00,,,0.60,,2013-02-24 22:11:00,
2013-02-24 17:21:00,37.0,34.0,29.77,NNE,12,5.0,8.0,89,0.00,,,0.60,,2013-02-24 22:21:00,
2013-02-24 17:32:00,35.0,33.0,29.79,West,277,2.0,12.0,92,0.01,,,0.61,,2013-02-24 22:32:00,
2013-02-24 17:42:00,35.0,33.0,29.79,West,277,2.0,12.0,92,0.01,,,0.61,,2013-02-24 22:42:00,
2013-02-24 17:52:00,35.0,33.0,29.80,NNE,16,2.0,12.0,92,0.01,,,0.61,,2013-02-24 22:52:00,
2013-02-24 18:02:00,35.0,33.0,29.80,North,357,5.0,12.0,92,0.01,,,0.61,,2013-02-24 23:02:00,
2013-02-24 18:11:00,35.0,33.0,29.80,North,357,5.0,12.0,92,0.01,,,0.61,,2013-02-24 23:11:00,
2013-02-24 18:21:00,35.0,33.0,29.81,NW,316,3.0,12.0,92,0.01,,,0.61,,2013-02-24 23:21:00,
2013-02-24 18:32:00,35.0,33.0,29.82,NW,308,5.0,7.0,92,0.00,,,0.61,,2013-02-24 23:32:00,
2013-02-24 18:42:00,35.0,33.0,29.82,NW,308,5.0,7.0,92,0.00,,,0.61,,2013-02-24 23:42:00,
2013-02-24 18:52:00,35.0,33.0,29.83,NW,323,4.0,7.0,91,0.00,,,0.61,,2013-02-24 23:52:00,
2013-02-24 19:01:00,35.0,33.0,29.84,NW,326,5.0,7.0,91,0.00,,,0.61,,2013-02-25 00:01:00,
2013-02-24 19:11:00,35.0,33.0,29.84,NW,326,5.0,7.0,91,0.00,,,0.61,,2013-02-25 00:11:00,
2013-02-24 19:21:00,35.0,33.0,29.84,NW,326,5.0,7.0,91,0.00,,,0.61,,2013-02-25 00:21:00,
2013-02-24 19:32:00,35.0,33.0,29.86,NNW,332,1.0,11.0,92,0.00,,,0.61,,2013-02-25 00:32:00,
2013-02-24 19:42:00,35.0,33.0,29.86,NNW,332,1.0,11.0,92,0.00,,,0.61,,2013-02-25 00:42:00,
2013-02-24 19:52:00,35.0,33.0,29.86,NNW,332,1.0,11.0,92,0.00,,,0.61,,2013-02-25 00:52:00,
2013-02-24 20:01:00,35.0,33.0,29.86,NNW,332,1.0,11.0,92,0.00,,,0.61,,2013-02-25 01:01:00,
2013-02-24 20:11:00,34.0,32.0,29.88,NW,322,3.0,11.0,92,0.00,,,0.61,,2013-02-25 01:11:00,
2013-02-24 20:21:00,34.0,32.0,29.88,NW,322,3.0,11.0,92,0.00,,,0.61,,2013-02-25 01:21:00,
2013-02-24 20:32:00,35.0,33.0,29.89,NW,322,3.0,0.0,91,0.00,,,0.61,,2013-02-25 01:32:00,
2013-02-24 20:42:00,35.0,33.0,29.89,NW,322,3.0,0.0,91,0.00,,,0.61,,2013-02-25 01:42:00,
2013-02-24 20:52:00,35.0,33.0,29.89,NW,322,3.0,0.0,91,0.00,,,0.61,,2013-02-25 01:52:00,
2013-02-24 21:01:00,35.0,33.0,29.90,NW,306,0.0,0.0,91,0.00,,,0.61,,2013-02-25 02:01:00,
2013-02-24 21:11:00,34.0,32.0,29.90,WNW,294,4.0,0.0,92,0.00,,,0.61,,2013-02-25 02:11:00,
2013-02-24 21:21:00,34.0,32.0,29.90,WNW,294,4.0,0.0,92,0.00,,,0.61,,2013-02-25 02:21:00,
2013-02-24 21:32:00,34.0,32.0,29.90,WNW,294,4.0,0.0,92,0.00,,,0.61,,2013-02-25 02:32:00,
2013-02-24 21:42:00,34.0,32.0,29.90,WNW,294,4.0,0.0,92,0.00,,,0.61,,2013-02-25 02:42:00,
2013-02-24 21:52:00,34.0,32.0,29.91,WNW,299,0.0,2.0,94,0.00,,,0.61,,2013-02-25 02:52:00,
2013-02-24 22:02:00,34.0,32.0,29.91,WNW,299,0.0,2.0,94,0.00,,,0.61,,2013-02-25 03:02:00,
2013-02-24 22:11:00,34.0,32.0,29.91,WNW,299,0.0,2.0,94,0.00,,,0.61,,2013-02-25 03:11:00,
2013-02-24 22:21:00,34.0,32.0,29.92,NW,310,7.0,7.0,94,0.00,,,0.61,,2013-02-25 03:21:00,
2013-02-24 22:32:00,33.0,31.0,29.93,WNW,297,0.0,3.0,94,0.02,,,0.63,,2013-02-25 03:32:00,
2013-02-24 22:42:00,33.0,31.0,29.93,WNW,297,0.0,3.0,94,0.02,,,0.63,,2013-02-25 03:42:00,
2013-02-24 22:52:00,33.0,31.0,29.93,NW,311,2.0,3.0,94,0.02,,,0.63,,2013-02-25 03:52:00,
2013-02-24 23:02:00,33.0,31.0,29.93,NW,312,2.0,3.0,94,0.02,,,0.63,,2013-02-25 04:02:00,
2013-02-24 23:11:00,33.0,31.0,29.93,NW,312,2.0,3.0,94,0.02,,,0.63,,2013-02-25 04:11:00,
2013-02-24 23:21:00,33.0,31.0,29.93,NW,310,0.0,3.0,94,0.02,,,0.63,,2013-02-25 04:21:00,
2013-02-24 23:32:00,33.0,32.0,29.93,NW,310,0.0,4.0,95,0.01,,,0.46,,2013-02-25 04:32:00,
2013-02-24 23:42:00,33.0,32.0,29.93,NW,310,0.0,4.0,95,0.01,,,0.46,,2013-02-25 04:42:00,
2013-02-24 23:52:00,33.0,32.0,29.93,NW,304,2.0,4.0,95,0.01,,,0.46,,2013-02-25 04:52:00,